createdAt,value
2019-04-29T00:00:54.151Z,8.20
2019-04-29T00:03:26.467Z,8.10
2019-04-29T00:05:58.365Z,8.20
2019-04-29T00:08:30.228Z,8.20
2019-04-29T00:11:05.574Z,8.20
2019-04-29T00:13:37.542Z,8.20
2019-04-29T00:16:40.797Z,8.30
2019-04-29T00:19:36.299Z,8.30
2019-04-29T00:22:08.874Z,8.20
2019-04-29T00:24:41.364Z,8.20
2019-04-29T00:27:13.345Z,8.20
2019-04-29T00:29:45.895Z,8.20
2019-04-29T00:32:17.762Z,8.10
2019-04-29T00:34:49.638Z,8.10
2019-04-29T00:37:39.184Z,8.00
2019-04-29T00:40:32.755Z,8.00
2019-04-29T00:43:11.602Z,7.90
2019-04-29T00:45:43.406Z,7.80
2019-04-29T00:48:15.807Z,7.70
2019-04-29T00:50:47.754Z,7.70
2019-04-29T00:53:20.558Z,7.70
2019-04-29T00:55:53.671Z,7.60
2019-04-29T00:58:26.059Z,7.50
2019-04-29T01:00:57.926Z,7.50
2019-04-29T01:03:29.782Z,7.50
2019-04-29T01:06:01.674Z,7.50
2019-04-29T01:08:33.466Z,7.40
2019-04-29T01:11:05.334Z,7.40
2019-04-29T01:13:37.223Z,7.40
2019-04-29T01:16:09.425Z,7.30
2019-04-29T01:18:41.768Z,7.30
2019-04-29T01:21:13.765Z,7.20
2019-04-29T01:23:45.734Z,7.10
2019-04-29T01:26:51.562Z,7.00
2019-04-29T01:29:24.163Z,7.00
2019-04-29T01:31:56.169Z,6.90
2019-04-29T01:34:33.867Z,6.90
2019-04-29T01:37:06.349Z,6.90
2019-04-29T01:39:47.740Z,6.80
2019-04-29T01:42:24.167Z,6.80
2019-04-29T01:44:56.030Z,6.70
2019-04-29T01:47:28.359Z,6.70
2019-04-29T01:50:00.259Z,6.70
2019-04-29T01:52:32.139Z,6.70
2019-04-29T01:55:03.994Z,6.60
2019-04-29T01:57:35.844Z,6.60
2019-04-29T02:00:12.152Z,6.60
2019-04-29T02:02:43.081Z,6.60
2019-04-29T02:05:15.431Z,6.50
2019-04-29T02:07:47.337Z,6.50
2019-04-29T02:10:25.910Z,6.40
2019-04-29T02:12:57.904Z,6.40
2019-04-29T02:15:30.259Z,6.40
2019-04-29T02:18:02.128Z,6.40
2019-04-29T02:20:34.646Z,6.40
2019-04-29T02:23:31.567Z,6.40
2019-04-29T02:26:03.332Z,6.40
2019-04-29T02:28:36.736Z,6.40
2019-04-29T02:31:26.875Z,6.40
2019-04-29T02:33:59.229Z,6.40
2019-04-29T02:36:31.093Z,6.40
2019-04-29T02:39:30.317Z,6.40
2019-04-29T02:42:21.002Z,6.30
2019-04-29T02:44:53.300Z,6.40
2019-04-29T02:47:25.184Z,6.30
2019-04-29T02:49:57.435Z,6.30
2019-04-29T02:52:29.265Z,6.30
2019-04-29T02:55:03.104Z,6.20
2019-04-29T02:57:45.989Z,6.20
2019-04-29T03:00:37.020Z,6.20
2019-04-29T03:03:17.504Z,6.20
2019-04-29T03:05:52.513Z,6.30
2019-04-29T03:08:24.486Z,6.20
2019-04-29T03:10:56.676Z,6.20
2019-04-29T03:13:28.657Z,6.30
2019-04-29T03:16:00.652Z,6.30
2019-04-29T03:18:34.271Z,6.40
2019-04-29T03:21:26.795Z,6.40
2019-04-29T03:23:58.685Z,6.40
2019-04-29T03:26:31.055Z,6.40
2019-04-29T03:29:02.836Z,6.30
2019-04-29T03:31:39.034Z,6.30
2019-04-29T03:34:09.171Z,6.30
2019-04-29T03:36:41.047Z,6.30
2019-04-29T03:39:12.865Z,6.20
2019-04-29T03:41:46.319Z,6.30
2019-04-29T03:44:27.656Z,6.20
2019-04-29T03:46:59.663Z,6.20
2019-04-29T03:49:32.712Z,6.20
2019-04-29T03:52:04.961Z,6.20
2019-04-29T03:54:37.452Z,6.20
2019-04-29T03:57:11.652Z,6.20
2019-04-29T03:59:44.081Z,6.20
2019-04-29T04:02:27.084Z,6.20
2019-04-29T04:05:17.062Z,6.20
2019-04-29T04:07:56.650Z,6.20
2019-04-29T04:10:28.978Z,6.20
2019-04-29T04:13:01.363Z,6.20
2019-04-29T04:15:33.253Z,6.20
2019-04-29T04:18:14.196Z,6.20
2019-04-29T04:20:46.159Z,6.30
2019-04-29T04:23:18.612Z,6.30
2019-04-29T04:25:51.073Z,6.30
2019-04-29T04:28:39.272Z,6.40
2019-04-29T04:31:11.103Z,6.50
2019-04-29T04:33:43.024Z,6.40
2019-04-29T04:36:14.862Z,6.50
2019-04-29T04:38:46.703Z,6.50
2019-04-29T04:41:18.614Z,6.60
2019-04-29T04:43:51.498Z,6.60
2019-04-29T04:46:23.785Z,6.70
2019-04-29T04:48:56.743Z,6.70
2019-04-29T04:51:28.639Z,6.80
2019-04-29T04:54:03.099Z,6.90
2019-04-29T04:56:35.046Z,6.90
2019-04-29T04:59:29.094Z,7.00
2019-04-29T05:02:02.123Z,7.00
2019-04-29T05:04:34.536Z,7.10
2019-04-29T05:07:06.433Z,7.10
2019-04-29T05:09:39.131Z,7.10
2019-04-29T05:12:13.906Z,7.20
2019-04-29T05:14:44.452Z,7.20
2019-04-29T05:17:18.105Z,7.20
2019-04-29T05:19:50.559Z,7.30
2019-04-29T05:22:24.647Z,7.20
2019-04-29T05:24:56.547Z,7.30
2019-04-29T05:27:28.433Z,7.30
2019-04-29T05:30:02.020Z,7.40
2019-04-29T05:32:39.346Z,7.60
2019-04-29T05:35:20.775Z,7.70
2019-04-29T05:38:02.608Z,7.80
2019-04-29T05:40:41.228Z,7.90
2019-04-29T05:43:15.840Z,8.10
2019-04-29T05:46:01.000Z,8.20
2019-04-29T05:48:35.326Z,8.40
2019-04-29T05:51:27.292Z,8.60
2019-04-29T05:54:00.394Z,8.70
2019-04-29T05:56:32.332Z,8.90
2019-04-29T05:59:04.207Z,9.10
2019-04-29T06:01:36.117Z,9.20
2019-04-29T06:04:11.579Z,9.30
2019-04-29T06:06:42.007Z,9.50
2019-04-29T06:09:16.857Z,9.50
2019-04-29T06:11:48.409Z,9.50
2019-04-29T06:14:22.249Z,9.60
2019-04-29T06:16:57.734Z,9.70
2019-04-29T06:19:27.807Z,9.80
2019-04-29T06:21:59.747Z,9.80
2019-04-29T06:24:32.148Z,9.70
2019-04-29T06:27:03.958Z,9.60
2019-04-29T06:29:36.115Z,9.60
2019-04-29T06:32:07.945Z,9.40
2019-04-29T06:34:41.610Z,9.40
2019-04-29T06:37:13.310Z,9.50
2019-04-29T06:39:45.306Z,9.60
2019-04-29T06:42:19.513Z,9.70
2019-04-29T06:44:50.830Z,9.80
2019-04-29T06:47:24.225Z,10.00
2019-04-29T06:49:56.139Z,10.10
2019-04-29T06:52:28.054Z,10.20
2019-04-29T06:55:00.363Z,10.20
2019-04-29T06:57:33.249Z,10.30
2019-04-29T07:00:06.426Z,10.30
2019-04-29T07:02:38.487Z,10.30
2019-04-29T07:05:10.896Z,10.40
2019-04-29T07:07:43.922Z,10.50
2019-04-29T07:10:21.188Z,10.50
2019-04-29T07:12:50.251Z,10.50
2019-04-29T07:15:22.678Z,10.50
2019-04-29T07:17:54.573Z,10.50
2019-04-29T07:20:27.022Z,10.60
2019-04-29T07:23:00.799Z,10.70
2019-04-29T07:25:34.402Z,10.90
2019-04-29T07:28:06.268Z,11.10
2019-04-29T07:30:59.969Z,11.30
2019-04-29T07:33:13.295Z,11.40
2019-04-29T07:35:47.981Z,11.50
2019-04-29T07:38:18.616Z,11.70
2019-04-29T07:40:50.510Z,12.00
2019-04-29T07:43:22.807Z,12.20
2019-04-29T07:46:11.564Z,12.30
2019-04-29T07:48:43.908Z,12.60
2019-04-29T07:51:16.190Z,12.70
2019-04-29T07:53:48.161Z,12.80
2019-04-29T07:56:20.612Z,12.90
2019-04-29T07:58:53.033Z,12.90
2019-04-29T08:01:26.325Z,13.00
2019-04-29T08:03:59.510Z,12.90
2019-04-29T08:06:32.468Z,12.90
2019-04-29T08:09:07.988Z,12.90
2019-04-29T08:11:40.702Z,13.10
2019-04-29T08:14:13.198Z,13.20
2019-04-29T08:16:45.047Z,13.20
2019-04-29T08:19:16.899Z,13.10
2019-04-29T08:21:49.714Z,13.10
2019-04-29T08:24:22.751Z,13.00
2019-04-29T08:26:54.672Z,12.90
2019-04-29T08:29:30.855Z,12.80
2019-04-29T08:32:02.572Z,12.50
2019-04-29T08:34:34.591Z,12.60
2019-04-29T08:37:06.588Z,12.80
2019-04-29T08:39:38.906Z,13.00
2019-04-29T08:42:16.038Z,13.20
2019-04-29T08:45:13.614Z,13.60
2019-04-29T08:47:46.898Z,13.80
2019-04-29T08:50:19.354Z,13.80
2019-04-29T08:52:51.678Z,13.90
2019-04-29T08:55:26.538Z,13.90
2019-04-29T08:57:57.123Z,13.80
2019-04-29T09:00:28.970Z,13.70
2019-04-29T09:03:01.318Z,13.70
2019-04-29T09:05:33.172Z,13.50
2019-04-29T09:08:06.071Z,13.60
2019-04-29T09:10:38.021Z,13.80
2019-04-29T09:13:09.979Z,14.00
2019-04-29T09:15:42.368Z,14.20
2019-04-29T09:18:14.480Z,14.40
2019-04-29T09:20:47.303Z,14.50
2019-04-29T09:23:22.019Z,14.50
2019-04-29T09:26:15.656Z,14.50
2019-04-29T09:28:49.701Z,14.60
2019-04-29T09:31:23.775Z,14.60
2019-04-29T09:34:06.439Z,14.60
2019-04-29T09:36:30.396Z,14.40
2019-04-29T09:39:02.251Z,14.10
2019-04-29T09:42:03.263Z,13.80
2019-04-29T09:45:00.733Z,13.60
2019-04-29T09:47:35.321Z,13.60
2019-04-29T09:50:07.578Z,13.50
2019-04-29T09:52:39.961Z,13.50
2019-04-29T09:55:12.576Z,13.40
2019-04-29T09:57:44.483Z,13.40
2019-04-29T10:00:27.712Z,13.20
2019-04-29T10:03:05.377Z,12.80
2019-04-29T10:05:43.820Z,12.60
2019-04-29T10:08:16.068Z,12.50
2019-04-29T10:10:48.020Z,12.50
2019-04-29T10:13:19.999Z,12.60
2019-04-29T10:16:17.206Z,12.60
2019-04-29T10:19:08.234Z,12.70
2019-04-29T10:21:40.547Z,12.90
2019-04-29T10:24:14.583Z,12.90
2019-04-29T10:26:46.811Z,12.80
2019-04-29T10:29:25.626Z,12.80
2019-04-29T10:31:56.394Z,12.90
2019-04-29T10:34:31.698Z,13.00
2019-04-29T10:37:02.186Z,13.20
2019-04-29T10:40:12.042Z,13.50
2019-04-29T10:43:02.567Z,13.70
2019-04-29T10:45:43.319Z,13.80
2019-04-29T10:48:26.310Z,13.50
2019-04-29T10:50:59.732Z,13.30
2019-04-29T10:53:31.698Z,13.30
2019-04-29T10:56:05.674Z,13.10
2019-04-29T10:58:38.026Z,13.20
2019-04-29T11:02:24.721Z,13.40
2019-04-29T11:05:02.722Z,13.60
2019-04-29T11:07:38.457Z,13.70
2019-04-29T11:10:25.070Z,13.80
2019-04-29T11:12:52.506Z,13.80
2019-04-29T11:15:29.527Z,13.60
2019-04-29T11:18:03.496Z,13.20
2019-04-29T11:20:37.364Z,13.10
2019-04-29T11:23:36.885Z,12.80
2019-04-29T11:26:32.132Z,12.60
2019-04-29T11:29:06.283Z,12.50
2019-04-29T11:31:38.647Z,12.60
2019-04-29T11:34:20.730Z,12.80
2019-04-29T11:36:52.717Z,12.70
2019-04-29T11:39:24.711Z,12.60
2019-04-29T11:41:59.675Z,12.50
2019-04-29T11:44:32.001Z,12.50
2019-04-29T11:47:04.667Z,12.30
2019-04-29T11:49:55.427Z,12.10
2019-04-29T11:52:29.268Z,11.80
2019-04-29T11:55:01.804Z,11.60
2019-04-29T11:57:41.369Z,11.70
2019-04-29T12:00:34.433Z,11.70
2019-04-29T12:03:09.573Z,11.60
2019-04-29T12:05:45.035Z,11.50
2019-04-29T12:08:18.428Z,11.30
2019-04-29T12:11:05.891Z,11.20
2019-04-29T12:13:31.519Z,11.10
2019-04-29T12:16:10.196Z,10.90
2019-04-29T12:18:53.610Z,10.80
2019-04-29T12:21:33.936Z,10.70
2019-04-29T12:24:07.515Z,10.60
2019-04-29T12:26:43.204Z,10.60
2019-04-29T12:29:18.031Z,10.60
2019-04-29T12:31:58.612Z,10.80
2019-04-29T12:34:55.075Z,10.90
2019-04-29T12:37:44.637Z,10.90
2019-04-29T12:40:38.831Z,10.90
2019-04-29T12:43:32.280Z,10.90
2019-04-29T12:46:22.093Z,11.00
2019-04-29T12:48:54.584Z,11.00
2019-04-29T12:51:27.388Z,11.00
2019-04-29T12:53:59.848Z,10.90
2019-04-29T12:56:36.755Z,10.90
2019-04-29T12:59:09.094Z,10.90
2019-04-29T13:02:14.847Z,11.00
2019-04-29T13:05:14.679Z,11.10
2019-04-29T13:08:14.944Z,11.20
2019-04-29T13:10:52.072Z,11.30
2019-04-29T13:13:24.731Z,11.30
2019-04-29T13:16:20.596Z,11.20
2019-04-29T13:19:19.932Z,11.10
2019-04-29T13:21:48.420Z,11.00
2019-04-29T13:24:25.049Z,10.90
2019-04-29T13:26:54.453Z,10.80
2019-04-29T13:29:27.767Z,10.70
2019-04-29T13:32:01.758Z,10.70
2019-04-29T13:34:38.230Z,10.60
2019-04-29T13:37:18.419Z,10.50
2019-04-29T13:39:44.139Z,10.60
2019-04-29T13:42:17.093Z,10.60
2019-04-29T13:45:05.183Z,10.70
2019-04-29T13:47:35.645Z,10.70
2019-04-29T13:50:23.590Z,10.70
2019-04-29T13:52:49.728Z,10.70
2019-04-29T13:55:46.533Z,10.80
2019-04-29T13:57:56.032Z,10.80
2019-04-29T14:00:46.797Z,11.00
2019-04-29T14:03:26.499Z,11.00
2019-04-29T14:06:04.423Z,11.00
2019-04-29T14:08:32.306Z,10.90
2019-04-29T14:11:04.660Z,10.80
2019-04-29T14:13:38.851Z,10.70
2019-04-29T14:16:11.947Z,10.50
2019-04-29T14:18:48.357Z,10.40
2019-04-29T14:21:18.679Z,10.30
2019-04-29T14:23:50.979Z,10.30
2019-04-29T14:26:22.911Z,10.20
2019-04-29T14:28:54.786Z,10.10
2019-04-29T14:31:30.190Z,9.90
2019-04-29T14:34:06.413Z,9.70
2019-04-29T14:36:38.859Z,9.40
2019-04-29T14:39:12.955Z,9.30
2019-04-29T14:41:50.922Z,9.20
2019-04-29T14:44:41.148Z,9.10
2019-04-29T14:47:38.335Z,9.10
2019-04-29T14:50:15.040Z,9.10
2019-04-29T14:52:44.806Z,9.10
2019-04-29T14:55:20.139Z,9.20
2019-04-29T14:57:52.207Z,9.20
2019-04-29T15:00:47.295Z,9.20
2019-04-29T15:03:23.772Z,9.20
2019-04-29T15:06:07.552Z,9.30
2019-04-29T15:08:40.393Z,9.20
2019-04-29T15:11:31.453Z,9.10
2019-04-29T15:14:02.926Z,9.10
2019-04-29T15:16:49.214Z,9.10
2019-04-29T15:19:48.910Z,9.10
2019-04-29T15:22:31.140Z,9.20
2019-04-29T15:25:03.051Z,9.20
2019-04-29T15:27:35.550Z,9.20
2019-04-29T15:30:09.220Z,9.20
2019-04-29T15:32:41.702Z,9.20
2019-04-29T15:35:14.597Z,9.20
2019-04-29T15:37:46.435Z,9.20
2019-04-29T15:40:20.395Z,9.10
2019-04-29T15:42:54.102Z,9.00
2019-04-29T15:45:28.109Z,8.90
2019-04-29T15:47:59.665Z,8.90
2019-04-29T15:50:32.582Z,9.00
2019-04-29T15:53:05.646Z,8.90
2019-04-29T15:55:41.004Z,8.90
2019-04-29T15:58:13.097Z,8.90
2019-04-29T16:00:45.852Z,8.90
2019-04-29T16:03:23.697Z,8.80
2019-04-29T16:06:27.937Z,8.80
2019-04-29T16:09:07.095Z,8.80
2019-04-29T16:14:36.643Z,8.70
2019-04-29T16:17:09.066Z,8.70
2019-04-29T16:19:42.722Z,8.70
2019-04-29T16:22:22.283Z,8.80
2019-04-29T16:25:04.969Z,8.80
2019-04-29T16:27:33.666Z,8.80
2019-04-29T16:30:06.968Z,8.70
2019-04-29T16:32:48.563Z,8.70
2019-04-29T16:35:35.080Z,8.60
2019-04-29T16:38:11.779Z,8.60
2019-04-29T16:40:48.154Z,8.60
2019-04-29T16:43:39.105Z,8.50
2019-04-29T16:46:23.513Z,8.50
2019-04-29T16:48:55.607Z,8.50
2019-04-29T16:51:27.550Z,8.40
2019-04-29T16:54:00.822Z,8.40
2019-04-29T16:56:33.292Z,8.40
2019-04-29T16:59:09.199Z,8.40
2019-04-29T17:01:41.284Z,8.40
2019-04-29T17:04:23.094Z,8.40
2019-04-29T17:07:11.661Z,8.40
2019-04-29T17:09:58.186Z,8.40
2019-04-29T17:12:38.011Z,8.40
2019-04-29T17:15:24.087Z,8.40
2019-04-29T17:17:43.977Z,8.40
2019-04-29T17:20:16.636Z,8.40
2019-04-29T17:22:49.076Z,8.40
2019-04-29T17:25:21.677Z,8.30
2019-04-29T17:28:12.217Z,8.20
2019-04-29T17:31:12.234Z,8.30
2019-04-29T17:33:50.115Z,8.20
2019-04-29T17:35:13.991Z,8.70
2019-04-29T17:36:23.961Z,8.20
2019-04-29T17:38:54.980Z,8.20
2019-04-29T17:41:26.836Z,8.20
2019-04-29T17:44:20.059Z,8.20
2019-04-29T17:47:11.449Z,8.20
2019-04-29T17:50:06.525Z,8.20
2019-04-29T17:52:36.442Z,8.20
2019-04-29T17:55:15.255Z,8.20
2019-04-29T17:57:56.199Z,8.20
2019-04-29T18:00:56.277Z,8.20
2019-04-29T18:03:51.166Z,8.20
2019-04-29T18:06:29.498Z,8.10
2019-04-29T18:09:27.400Z,8.20
2019-04-29T18:12:02.217Z,8.20
2019-04-29T18:14:40.428Z,8.10
2019-04-29T18:17:10.007Z,8.10
2019-04-29T18:20:00.717Z,8.10
2019-04-29T18:22:52.510Z,8.20
2019-04-29T18:25:36.531Z,8.20
2019-04-29T18:28:07.500Z,8.10
2019-04-29T18:30:39.589Z,8.20
2019-04-29T18:33:12.026Z,8.10
2019-04-29T18:35:46.703Z,8.20
2019-04-29T18:38:19.198Z,8.20
2019-04-29T18:40:51.066Z,8.20
2019-04-29T18:43:24.393Z,8.20
2019-04-29T18:45:59.232Z,8.30
2019-04-29T18:48:30.930Z,8.20
2019-04-29T18:51:05.618Z,8.20
2019-04-29T18:53:37.775Z,8.30
2019-04-29T18:56:10.570Z,8.30
2019-04-29T18:58:46.855Z,8.30
2019-04-29T19:01:19.662Z,8.30
2019-04-29T19:04:16.768Z,8.30
2019-04-29T19:06:46.053Z,8.30
2019-04-29T19:09:20.844Z,8.40
2019-04-29T19:11:53.214Z,8.40
2019-04-29T19:14:28.297Z,8.40
2019-04-29T19:17:01.382Z,8.40
2019-04-29T19:19:35.935Z,8.40
2019-04-29T19:22:09.297Z,8.40
2019-04-29T19:24:41.034Z,8.40
2019-04-29T19:27:15.057Z,8.40
2019-04-29T19:29:47.724Z,8.40
2019-04-29T19:32:23.191Z,8.40
2019-04-29T19:34:57.359Z,8.40
2019-04-29T19:37:34.975Z,8.40
2019-04-29T19:40:02.235Z,8.40
2019-04-29T19:42:39.797Z,8.40
2019-04-29T19:45:14.602Z,8.40
2019-04-29T19:47:52.065Z,8.40
2019-04-29T19:50:21.058Z,8.40
2019-04-29T19:52:53.047Z,8.40
2019-04-29T19:55:27.818Z,8.40
2019-04-29T19:57:59.586Z,8.40
2019-04-29T20:00:32.635Z,8.40
2019-04-29T20:03:20.456Z,8.50
2019-04-29T20:05:46.674Z,8.40
2019-04-29T20:08:37.569Z,8.50
2019-04-29T20:10:58.143Z,8.50
2019-04-29T20:13:31.814Z,8.50
2019-04-29T20:16:27.935Z,8.50
2019-04-29T20:19:16.237Z,8.50
2019-04-29T20:21:46.020Z,8.50
2019-04-29T20:24:23.184Z,8.50
2019-04-29T20:26:52.153Z,8.50
2019-04-29T20:29:27.266Z,8.50
2019-04-29T20:31:58.985Z,8.50
2019-04-29T20:34:31.052Z,8.50
2019-04-29T20:37:05.651Z,8.50
2019-04-29T20:39:37.199Z,8.50
2019-04-29T20:42:10.444Z,8.50
2019-04-29T20:44:45.752Z,8.50
2019-04-29T20:47:22.138Z,8.50
2019-04-29T20:49:50.283Z,8.60
2019-04-29T20:52:41.452Z,8.60
2019-04-29T20:55:15.566Z,8.60
2019-04-29T20:57:47.993Z,8.60
2019-04-29T21:00:24.826Z,8.70
2019-04-29T21:02:54.582Z,8.70
2019-04-29T21:05:27.752Z,8.70
2019-04-29T21:08:03.362Z,8.70
2019-04-29T21:10:37.929Z,8.70
2019-04-29T21:13:30.332Z,8.70
2019-04-29T21:16:30.687Z,8.70
2019-04-29T21:19:17.719Z,8.70
2019-04-29T21:21:50.139Z,8.70
2019-04-29T21:24:21.971Z,8.70
2019-04-29T21:26:55.033Z,8.70
2019-04-29T21:29:28.290Z,8.70
2019-04-29T21:32:01.843Z,8.70
2019-04-29T21:34:41.349Z,8.70
2019-04-29T21:37:25.865Z,8.70
2019-04-29T21:40:18.766Z,8.80
2019-04-29T21:43:08.114Z,8.80
2019-04-29T21:45:39.818Z,8.80
2019-04-29T21:48:12.791Z,8.80
2019-04-29T21:50:44.950Z,8.80
2019-04-29T21:53:16.902Z,8.70
2019-04-29T21:55:49.843Z,8.70
2019-04-29T21:58:22.251Z,8.70
2019-04-29T22:00:59.153Z,8.80
2019-04-29T22:03:31.806Z,8.80
2019-04-29T22:06:04.166Z,8.80
2019-04-29T22:08:36.973Z,8.80
2019-04-29T22:11:08.924Z,8.80
2019-04-29T22:13:40.710Z,8.70
2019-04-29T22:16:15.755Z,8.80
2019-04-29T22:18:51.842Z,8.80
2019-04-29T22:21:21.860Z,8.80
2019-04-29T22:23:55.222Z,8.80
2019-04-29T22:26:29.923Z,8.80
2019-04-29T22:29:03.577Z,8.80
2019-04-29T22:31:38.218Z,8.80
2019-04-29T22:34:10.031Z,8.80
2019-04-29T22:36:43.436Z,8.80
2019-04-29T22:39:21.711Z,8.80
2019-04-29T22:42:19.318Z,8.80
2019-04-29T22:44:52.591Z,8.80
2019-04-29T22:47:24.982Z,8.80
2019-04-29T22:49:58.747Z,8.80
2019-04-29T22:52:31.467Z,8.90
2019-04-29T22:55:05.406Z,8.80
2019-04-29T22:57:37.042Z,8.80
2019-04-29T23:00:09.450Z,8.90
2019-04-29T23:02:43.299Z,8.90
2019-04-29T23:05:15.143Z,8.90
2019-04-29T23:07:47.003Z,8.90
2019-04-29T23:10:24.001Z,8.90
2019-04-29T23:12:56.197Z,8.90
2019-04-29T23:15:27.234Z,8.90
2019-04-29T23:17:59.157Z,8.90
2019-04-29T23:20:53.089Z,9.00
2019-04-29T23:23:33.505Z,9.00
2019-04-29T23:26:05.229Z,8.90
2019-04-29T23:28:37.443Z,9.00
2019-04-29T23:31:10.167Z,9.00
2019-04-29T23:33:42.483Z,9.00
2019-04-29T23:36:15.958Z,9.00
2019-04-29T23:38:48.677Z,9.00
2019-04-29T23:41:25.520Z,9.00
2019-04-29T23:43:59.849Z,9.00
2019-04-29T23:46:34.262Z,9.00
2019-04-29T23:49:06.520Z,9.00
2019-04-29T23:51:38.105Z,9.00
2019-04-29T23:54:09.900Z,9.00
2019-04-29T23:57:09.618Z,9.00
2019-04-29T23:59:48.841Z,9.00
